Time;durP1;ratioP1;P1;durP2;ratioP2;P2;SDS_P1;SDS_P2;PMS_P1;PMS_P2;Temp;Humidity;BMP_temperature;BMP_pressure;BME280_temperature;BME280_humidity;BME280_pressure;Samples;Min_cycle;Max_cycle;Signal;HPM_P1;HPM_P2
2023/04/07 00:01:37;;;;;;;12.15;8.32;;;12.10;76.80;;;;;;10944388;32;20069;-71
2023/04/07 00:07:39;;;;;;;14.77;12.15;;;12.10;76.70;;;;;;10944202;32;20309;-71
2023/04/07 00:13:41;;;;;;;13.50;11.15;;;12.00;76.50;;;;;;10929420;32;20027;-71
2023/04/07 00:19:43;;;;;;;14.87;10.48;;;12.10;76.10;;;;;;10943732;32;20003;-71
2023/04/07 00:25:47;;;;;;;19.08;12.68;;;12.10;75.90;;;;;;10942376;32;20018;-71
2023/04/07 00:32:14;;;;;;;10.85;8.52;;;12.00;75.90;;;;;;10940771;32;20038;-71
2023/04/07 00:38:17;;;;;;;10.27;8.32;;;12.00;75.70;;;;;;10943345;32;20204;-71
2023/04/07 00:44:19;;;;;;;10.30;7.93;;;11.50;76.40;;;;;;10942523;32;20011;-71
2023/04/07 00:50:21;;;;;;;16.62;12.65;;;11.60;76.30;;;;;;10941019;32;20058;-71
2023/04/07 00:56:23;;;;;;;15.60;12.13;;;11.70;76.20;;;;;;10941548;32;20041;-71
2023/04/07 01:02:45;;;;;;;11.20;8.02;;;11.70;75.90;;;;;;10942454;32;20019;-71
2023/04/07 01:09:09;;;;;;;17.90;14.15;;;11.50;75.80;;;;;;10941179;32;20072;-71
2023/04/07 01:15:12;;;;;;;16.35;12.18;;;11.20;76.70;;;;;;10942123;32;20042;-71
2023/04/07 01:21:17;;;;;;;11.20;9.65;;;11.20;76.40;;;;;;10941028;32;20361;-75
2023/04/07 01:27:31;;;;;;;19.10;16.00;;;11.30;75.90;;;;;;10937916;32;20023;-75
2023/04/07 01:33:35;;;;;;;12.27;10.43;;;11.40;75.90;;;;;;10942063;32;20011;-75
2023/04/07 01:39:38;;;;;;;16.40;12.73;;;11.40;75.60;;;;;;10948098;32;20042;-75
2023/04/07 01:45:41;;;;;;;11.70;7.12;;;11.20;75.50;;;;;;10947896;32;20053;-75
2023/04/07 01:51:49;;;;;;;10.55;8.23;;;11.20;75.00;;;;;;10947959;32;20061;-75
2023/04/07 01:57:53;;;;;;;9.63;6.93;;;11.10;75.30;;;;;;10948984;32;20037;-75
2023/04/07 02:04:06;;;;;;;9.10;6.37;;;11.10;75.30;;;;;;10947998;32;20333;-75
2023/04/07 02:10:12;;;;;;;11.43;8.40;;;11.00;75.30;;;;;;10920566;32;20038;-75
2023/04/07 02:16:16;;;;;;;10.50;8.32;;;10.90;75.00;;;;;;10947513;32;20018;-75
2023/04/07 02:22:19;;;;;;;11.20;7.45;;;10.70;75.10;;;;;;10948035;32;20049;-75
2023/04/07 02:28:22;;;;;;;13.25;10.00;;;10.50;75.70;;;;;;10933735;32;20022;-75
2023/04/07 02:34:24;;;;;;;14.05;8.68;;;10.60;75.50;;;;;;10947512;32;20038;-75
2023/04/07 02:40:27;;;;;;;11.00;7.82;;;10.70;75.10;;;;;;10932327;32;20053;-75
2023/04/07 02:46:29;;;;;;;7.82;5.72;;;10.60;75.10;;;;;;10943977;32;20404;-75
2023/04/07 02:52:32;;;;;;;13.57;12.05;;;10.40;75.30;;;;;;10945805;32;20038;-75
2023/04/07 02:58:34;;;;;;;12.80;9.27;;;10.40;75.30;;;;;;10933308;32;20015;-75
2023/04/07 03:04:36;;;;;;;11.38;10.18;;;10.50;75.70;;;;;;10945943;32;20018;-75
2023/04/07 03:10:39;;;;;;;14.07;9.65;;;10.70;75.90;;;;;;10944977;32;20010;-75
2023/04/07 03:16:42;;;;;;;14.13;8.93;;;10.70;76.30;;;;;;10944885;32;20045;-75
2023/04/07 03:22:46;;;;;;;17.98;11.43;;;10.60;77.50;;;;;;10932543;32;20301;-75
2023/04/07 03:28:49;;;;;;;16.02;13.38;;;10.50;78.90;;;;;;10945021;32;20022;-75
2023/04/07 03:34:53;;;;;;;23.52;18.33;;;10.50;78.00;;;;;;10931587;32;20015;-75
2023/04/07 03:40:56;;;;;;;12.55;9.95;;;10.60;77.40;;;;;;10931752;32;20378;-75
2023/04/07 03:46:58;;;;;;;17.87;14.77;;;10.60;77.80;;;;;;10944286;32;20042;-75
2023/04/07 03:53:01;;;;;;;15.63;8.52;;;10.60;78.50;;;;;;10943524;32;20041;-75
2023/04/07 03:59:04;;;;;;;12.80;9.50;;;10.40;78.20;;;;;;10942919;32;20019;-75
2023/04/07 04:05:07;;;;;;;19.40;13.32;;;10.30;78.10;;;;;;10943695;32;20076;-75
2023/04/07 04:11:10;;;;;;;17.48;15.10;;;10.30;78.60;;;;;;10944037;32;20027;-75
2023/04/07 04:17:14;;;;;;;14.57;12.48;;;10.20;79.40;;;;;;10928573;32;20027;-75
2023/04/07 04:23:17;;;;;;;21.37;14.82;;;9.90;79.20;;;;;;10943129;32;20076;-75
2023/04/07 04:29:20;;;;;;;14.25;11.68;;;9.70;79.60;;;;;;10942171;32;20050;-75
2023/04/07 04:35:22;;;;;;;11.93;8.95;;;9.80;80.50;;;;;;10929117;32;20019;-75
2023/04/07 04:41:25;;;;;;;18.30;13.20;;;10.30;79.40;;;;;;10939404;32;20030;-75
2023/04/07 04:47:27;;;;;;;15.80;12.10;;;10.60;78.40;;;;;;10942004;32;20077;-75
2023/04/07 04:53:29;;;;;;;11.25;7.32;;;10.70;77.80;;;;;;10941436;32;20357;-75
2023/04/07 04:59:32;;;;;;;15.85;12.48;;;10.50;77.60;;;;;;10941551;32;20326;-75
2023/04/07 05:05:35;;;;;;;15.07;11.65;;;10.50;78.20;;;;;;10939712;32;20019;-75
2023/04/07 05:11:39;;;;;;;20.40;16.50;;;10.70;78.50;;;;;;10941937;32;20050;-76
2023/04/07 05:17:41;;;;;;;43.25;30.25;;;10.80;77.90;;;;;;10941445;32;20046;-75
2023/04/07 05:23:45;;;;;;;32.75;23.83;;;11.00;77.60;;;;;;10941985;32;20389;-75
2023/04/07 05:29:49;;;;;;;24.55;17.15;;;11.00;77.10;;;;;;10940451;32;20185;-75
2023/04/07 05:35:54;;;;;;;24.70;18.60;;;11.00;76.80;;;;;;10940847;32;20041;-75
2023/04/07 05:41:56;;;;;;;16.37;10.98;;;11.00;76.80;;;;;;10941214;32;20024;-75
2023/04/07 05:47:59;;;;;;;11.90;8.02;;;11.20;76.60;;;;;;10940352;32;20142;-75
2023/04/07 05:54:04;;;;;;;9.85;7.43;;;11.20;76.50;;;;;;10940513;32;20023;-75
2023/04/07 06:00:08;;;;;;;12.13;10.23;;;11.20;76.60;;;;;;10940176;32;20381;-75
2023/04/07 06:06:15;;;;;;;22.73;15.65;;;11.30;77.10;;;;;;10926667;32;20320;-75
2023/04/07 06:12:17;;;;;;;10.63;7.45;;;11.50;77.10;;;;;;10927046;32;20065;-75
2023/04/07 06:18:19;;;;;;;14.20;9.55;;;11.50;77.80;;;;;;10926068;32;20054;-75
2023/04/07 06:24:24;;;;;;;18.80;9.73;;;11.60;78.00;;;;;;10943667;32;20023;-75
2023/04/07 06:30:25;;;;;;;16.75;8.10;;;11.60;78.50;;;;;;10947024;32;20041;-76
2023/04/07 06:36:27;;;;;;;12.27;8.95;;;11.80;78.90;;;;;;10947586;32;20063;-76
2023/04/07 06:42:35;;;;;;;9.20;6.75;;;12.10;80.00;;;;;;10932795;32;20027;-75
2023/04/07 06:48:38;;;;;;;15.40;9.57;;;12.20;79.70;;;;;;10944145;32;20452;-76
2023/04/07 06:54:40;;;;;;;11.18;5.75;;;12.20;79.50;;;;;;10945611;32;20030;-75
2023/04/07 07:00:42;;;;;;;9.95;6.85;;;12.30;79.60;;;;;;10946041;32;20019;-76
2023/04/07 07:06:44;;;;;;;14.60;11.80;;;12.20;80.10;;;;;;10945914;32;20317;-75
2023/04/07 07:12:45;;;;;;;11.23;7.87;;;12.20;80.20;;;;;;10945541;32;20023;-76
2023/04/07 07:18:48;;;;;;;21.90;17.70;;;12.00;80.60;;;;;;10941590;32;20085;-76
2023/04/07 07:24:50;;;;;;;10.95;8.68;;;12.10;81.00;;;;;;10944620;32;20053;-76
2023/04/07 07:30:52;;;;;;;8.77;5.72;;;12.00;81.10;;;;;;10944424;32;20027;-76
2023/04/07 07:37:14;;;;;;;14.02;9.45;;;12.10;81.20;;;;;;10926442;32;20049;-75
2023/04/07 07:43:16;;;;;;;10.32;7.55;;;12.20;80.40;;;;;;10945074;32;20014;-75
2023/04/07 07:49:18;;;;;;;17.85;11.07;;;12.20;80.60;;;;;;10949039;27;20432;-75
2023/04/07 07:55:21;;;;;;;18.83;14.07;;;12.20;80.70;;;;;;10980837;32;20019;-75
2023/04/07 08:01:22;;;;;;;15.70;12.30;;;12.20;80.40;;;;;;10981323;32;20053;-75
2023/04/07 08:07:26;;;;;;;17.58;12.43;;;12.20;79.80;;;;;;10981694;32;20332;-75
2023/04/07 08:13:28;;;;;;;19.98;13.80;;;12.20;80.10;;;;;;10955067;32;20035;-75
2023/04/07 08:19:33;;;;;;;16.73;11.77;;;12.20;80.20;;;;;;10978176;32;20018;-76
2023/04/07 08:25:36;;;;;;;13.85;9.48;;;12.20;79.90;;;;;;10981702;32;20329;-76
2023/04/07 08:31:39;;;;;;;30.70;15.00;;;12.30;79.60;;;;;;10980739;32;20171;-76
2023/04/07 08:37:43;;;;;;;18.05;13.18;;;12.50;79.50;;;;;;10979635;32;20026;-75
2023/04/07 08:43:48;;;;;;;19.10;14.30;;;12.50;78.80;;;;;;10980702;32;20019;-75
2023/04/07 08:49:52;;;;;;;16.12;11.63;;;12.70;79.20;;;;;;10977818;32;20053;-76
2023/04/07 08:55:55;;;;;;;21.30;15.55;;;12.90;79.10;;;;;;10980597;32;20014;-76
2023/04/07 09:01:58;;;;;;;19.80;16.02;;;13.20;79.80;;;;;;10980200;32;20400;-75
2023/04/07 09:08:01;;;;;;;12.10;8.10;;;13.40;79.60;;;;;;10978982;32;20023;-75
2023/04/07 09:14:04;;;;;;;14.70;10.95;;;13.70;80.00;;;;;;10978584;32;20023;-75
2023/04/07 09:20:06;;;;;;;11.95;8.13;;;14.00;79.40;;;;;;10979352;32;20266;-78
2023/04/07 09:26:27;;;;;;;17.42;11.38;;;14.00;78.90;;;;;;10961274;32;20069;-77
2023/04/07 09:32:40;;;;;;;9.30;6.50;;;14.10;79.00;;;;;;10979551;32;20475;-75
2023/04/07 09:38:44;;;;;;;9.32;7.00;;;14.10;78.70;;;;;;10964334;32;20050;-71
2023/04/07 09:44:47;;;;;;;12.05;8.25;;;14.20;77.70;;;;;;10978880;32;20019;-74
2023/04/07 09:50:50;;;;;;;8.57;6.15;;;14.20;75.90;;;;;;10978940;32;20053;-71
2023/04/07 09:56:53;;;;;;;8.27;5.55;;;14.20;76.60;;;;;;10980381;32;20392;-71
2023/04/07 10:02:56;;;;;;;13.85;10.60;;;14.50;77.50;;;;;;10971391;32;20039;-71
2023/04/07 10:08:58;;;;;;;24.65;17.52;;;14.70;75.70;;;;;;10983796;32;20095;-73
2023/04/07 10:15:01;;;;;;;12.00;8.40;;;14.70;74.30;;;;;;10983820;32;20049;-74
2023/04/07 10:21:06;;;;;;;24.20;17.58;;;14.80;73.40;;;;;;10971270;32;20049;-73
2023/04/07 10:27:16;;;;;;;14.70;11.27;;;15.00;72.70;;;;;;10966470;32;20101;-73
2023/04/07 10:33:48;;;;;;;18.50;11.85;;;15.00;71.50;;;;;;10985677;32;20367;-73
2023/04/07 10:40:11;;;;;;;21.73;17.23;;;15.20;72.30;;;;;;10981442;32;20014;-73
2023/04/07 10:46:13;;;;;;;21.12;12.60;;;15.40;69.80;;;;;;10985167;32;20332;-73
2023/04/07 10:52:23;;;;;;;18.80;14.32;;;15.50;69.00;;;;;;10984266;32;20027;-75
2023/04/07 10:58:30;;;;;;;20.27;14.87;;;15.80;68.30;;;;;;10984488;32;20376;-75
2023/04/07 11:04:41;;;;;;;26.05;22.27;;;16.00;66.80;;;;;;10965933;32;20493;-77
2023/04/07 11:10:46;;;;;;;22.35;15.27;;;16.40;68.50;;;;;;10953939;32;20333;-77
2023/04/07 11:16:49;;;;;;;14.25;9.70;;;16.50;66.80;;;;;;10946411;32;20051;-75
2023/04/07 11:23:00;;;;;;;22.87;17.55;;;16.80;65.70;;;;;;10946049;32;20057;-77
2023/04/07 11:29:03;;;;;;;18.12;13.77;;;17.30;66.60;;;;;;10945515;32;20034;-75
2023/04/07 11:35:08;;;;;;;25.12;20.90;;;17.20;67.80;;;;;;10944934;32;20019;-75
2023/04/07 11:41:13;;;;;;;19.85;14.00;;;17.00;67.30;;;;;;10945283;32;20024;-75
2023/04/07 11:47:15;;;;;;;19.12;14.20;;;16.90;65.80;;;;;;10930242;32;20149;-76
2023/04/07 11:53:38;;;;;;;12.02;8.57;;;16.80;67.00;;;;;;10929676;32;20352;-76
2023/04/07 11:59:41;;;;;;;21.60;15.35;;;17.20;66.10;;;;;;10945703;32;20034;-74
2023/04/07 12:05:44;;;;;;;18.42;12.43;;;17.70;64.40;;;;;;10968687;32;20313;-75
2023/04/07 12:11:49;;;;;;;21.33;15.40;;;17.50;62.60;;;;;;10967109;32;20023;-75
2023/04/07 12:17:51;;;;;;;13.38;7.65;;;17.30;64.10;;;;;;10981257;32;20380;-76
2023/04/07 12:23:53;;;;;;;12.35;8.48;;;17.20;63.90;;;;;;10953121;32;20058;-76
2023/04/07 12:29:55;;;;;;;10.82;6.93;;;17.30;64.30;;;;;;10980582;32;20018;-73
2023/04/07 12:35:58;;;;;;;20.00;14.15;;;17.30;63.80;;;;;;10979978;32;20041;-73
2023/04/07 12:42:00;;;;;;;13.77;7.87;;;17.60;62.60;;;;;;10965997;32;20056;-73
2023/04/07 12:48:03;;;;;;;22.85;15.13;;;17.80;60.40;;;;;;10979516;32;20023;-72
2023/04/07 12:54:05;;;;;;;21.23;14.23;;;17.80;60.90;;;;;;10975871;32;20255;-72
2023/04/07 13:00:08;;;;;;;20.73;15.63;;;17.50;62.20;;;;;;10979735;32;20041;-72
2023/04/07 13:06:10;;;;;;;12.93;10.40;;;17.20;62.60;;;;;;10961382;32;20057;-72
2023/04/07 13:12:12;;;;;;;13.68;8.05;;;16.80;64.40;;;;;;10978914;32;20023;-73
2023/04/07 13:18:15;;;;;;;15.30;11.85;;;16.60;64.60;;;;;;10980036;32;20045;-72
2023/04/07 13:24:17;;;;;;;12.18;9.00;;;16.40;64.20;;;;;;10965173;32;20340;-73
2023/04/07 13:30:19;;;;;;;16.92;12.77;;;16.30;65.20;;;;;;10979262;32;20062;-72
2023/04/07 13:36:21;;;;;;;14.93;12.40;;;16.20;65.40;;;;;;10986115;32;20042;-73
2023/04/07 13:42:24;;;;;;;15.20;11.10;;;16.30;66.70;;;;;;10986993;32;20416;-70
2023/04/07 13:48:26;;;;;;;11.90;7.40;;;16.20;65.70;;;;;;10986784;32;20022;-73
2023/04/07 13:54:29;;;;;;;10.48;7.87;;;16.30;66.20;;;;;;10985727;32;20301;-73
2023/04/07 14:00:31;;;;;;;20.33;11.12;;;16.30;64.90;;;;;;10986703;32;20023;-73
2023/04/07 14:06:35;;;;;;;10.90;7.20;;;16.30;63.70;;;;;;10988046;32;20023;-71
2023/04/07 14:12:37;;;;;;;15.20;10.73;;;16.20;62.90;;;;;;10984613;32;20524;-70
2023/04/07 14:18:39;;;;;;;10.55;7.12;;;16.30;64.30;;;;;;10984697;32;20072;-70
2023/04/07 14:24:42;;;;;;;9.75;7.30;;;16.50;66.00;;;;;;10983159;32;20026;-73
2023/04/07 14:30:45;;;;;;;12.20;8.38;;;16.70;67.80;;;;;;10981233;32;20312;-71
2023/04/07 14:36:55;;;;;;;10.60;7.50;;;17.00;67.10;;;;;;10985189;32;20015;-71
2023/04/07 14:42:58;;;;;;;12.77;5.95;;;17.10;65.10;;;;;;10956652;32;20034;-71
2023/04/07 14:49:00;;;;;;;8.60;6.12;;;17.40;66.10;;;;;;10982645;32;20057;-71
2023/04/07 14:55:02;;;;;;;16.00;10.75;;;17.60;64.80;;;;;;10982657;32;20053;-71
2023/04/07 15:01:05;;;;;;;11.27;6.43;;;17.70;66.50;;;;;;10983537;32;20042;-71
2023/04/07 15:07:08;;;;;;;8.95;6.53;;;17.60;66.90;;;;;;10962911;32;20030;-71
2023/04/07 15:13:10;;;;;;;4.35;3.28;;;17.60;68.00;;;;;;10949268;32;20088;-71
2023/04/07 15:19:12;;;;;;;9.32;5.70;;;17.30;67.70;;;;;;10968769;32;20053;-71
2023/04/07 15:25:15;;;;;;;5.07;3.72;;;17.20;68.70;;;;;;10982109;32;20450;-71
2023/04/07 15:31:17;;;;;;;10.32;6.97;;;17.00;68.80;;;;;;10968157;32;20048;-71
2023/04/07 15:37:19;;;;;;;6.47;4.35;;;17.00;69.20;;;;;;10957233;32;20104;-71
2023/04/07 15:43:22;;;;;;;9.35;5.93;;;16.80;69.10;;;;;;10958731;32;20031;-71
2023/04/07 15:49:24;;;;;;;6.03;4.15;;;16.80;69.80;;;;;;10757101;27;7240974;-71
2023/04/07 15:55:26;;;;;;;6.95;4.70;;;16.70;70.30;;;;;;10869113;32;20303;-71
2023/04/07 16:01:28;;;;;;;6.35;4.10;;;16.60;70.40;;;;;;10841546;32;20448;-71
2023/04/07 16:07:31;;;;;;;5.28;3.95;;;16.50;71.20;;;;;;10831071;32;20027;-71
2023/04/07 16:13:33;;;;;;;12.23;5.05;;;16.50;71.20;;;;;;10826748;32;20024;-71
2023/04/07 16:19:35;;;;;;;9.23;6.37;;;16.50;70.70;;;;;;10815842;32;20062;-71
2023/04/07 16:25:37;;;;;;;6.72;5.15;;;16.40;72.30;;;;;;10830407;32;20028;-71
2023/04/07 16:31:40;;;;;;;8.82;6.10;;;16.40;72.30;;;;;;10824996;32;20063;-71
2023/04/07 16:37:45;;;;;;;9.50;6.85;;;16.50;73.00;;;;;;10867983;32;20047;-71
2023/04/07 16:43:47;;;;;;;7.78;5.82;;;16.50;73.00;;;;;;10868061;32;20016;-71
2023/04/07 16:49:50;;;;;;;9.93;6.32;;;16.40;73.70;;;;;;10866826;32;20058;-71
2023/04/07 16:55:52;;;;;;;9.45;6.90;;;16.60;73.30;;;;;;10855210;32;20027;-71
2023/04/07 17:01:54;;;;;;;6.43;4.97;;;16.70;73.70;;;;;;10852753;32;20032;-71
2023/04/07 17:07:56;;;;;;;5.22;4.20;;;16.50;73.80;;;;;;10854124;32;20042;-71
2023/04/07 17:13:59;;;;;;;5.35;3.87;;;16.50;74.80;;;;;;10866964;32;20024;-71
2023/04/07 17:20:02;;;;;;;8.95;3.67;;;16.50;74.70;;;;;;10854487;32;20023;-71
2023/04/07 17:26:04;;;;;;;4.32;3.30;;;16.50;75.00;;;;;;10865510;32;20019;-71
2023/04/07 17:32:07;;;;;;;9.13;5.20;;;16.40;75.00;;;;;;10853796;32;20042;-71
2023/04/07 17:38:09;;;;;;;6.00;4.12;;;16.40;75.70;;;;;;10866689;32;20050;-71
2023/04/07 17:44:11;;;;;;;6.75;3.87;;;16.30;75.60;;;;;;10867043;32;20051;-72
2023/04/07 17:50:15;;;;;;;9.73;5.35;;;16.00;75.90;;;;;;10866847;32;20341;-71
2023/04/07 17:56:19;;;;;;;10.13;6.10;;;15.80;75.90;;;;;;10866018;32;20050;-71
2023/04/07 18:02:21;;;;;;;9.70;6.10;;;15.70;75.80;;;;;;10861183;32;20066;-71
2023/04/07 18:08:25;;;;;;;8.27;6.65;;;15.50;75.60;;;;;;10857177;32;20027;-71
2023/04/07 18:14:27;;;;;;;6.20;3.78;;;15.30;75.50;;;;;;10849388;32;20054;-71
2023/04/07 18:20:30;;;;;;;5.72;4.35;;;15.50;76.50;;;;;;10836499;32;20359;-71
2023/04/07 18:26:35;;;;;;;6.28;4.50;;;15.80;76.30;;;;;;10867767;32;20054;-71
2023/04/07 18:32:37;;;;;;;8.77;4.72;;;15.80;76.50;;;;;;10867080;32;20035;-71
2023/04/07 18:38:39;;;;;;;9.00;7.03;;;16.00;77.40;;;;;;10868161;32;20067;-71
2023/04/07 18:44:42;;;;;;;9.70;6.87;;;16.20;78.10;;;;;;10854763;32;20035;-71
2023/04/07 18:50:51;;;;;;;12.48;8.40;;;16.10;77.80;;;;;;10871650;32;20027;-71
2023/04/07 18:56:54;;;;;;;9.88;8.27;;;16.10;77.90;;;;;;10872177;32;20019;-71
2023/04/07 19:02:57;;;;;;;8.75;6.47;;;16.10;78.80;;;;;;10868958;32;20330;-71
2023/04/07 19:08:59;;;;;;;8.55;5.78;;;16.10;79.20;;;;;;10870277;32;20045;-71
2023/04/07 19:15:01;;;;;;;13.73;9.18;;;16.00;78.50;;;;;;10870095;32;20039;-71
2023/04/07 19:21:03;;;;;;;22.05;13.80;;;16.00;78.90;;;;;;10871560;32;20337;-71
2023/04/07 19:27:06;;;;;;;26.27;16.70;;;16.00;79.50;;;;;;10871045;32;20058;-71
2023/04/07 19:33:08;;;;;;;21.48;17.12;;;15.90;79.60;;;;;;10870440;32;20050;-71
2023/04/07 19:39:10;;;;;;;24.85;18.77;;;15.50;79.60;;;;;;10869929;32;20074;-71
2023/04/07 19:45:12;;;;;;;29.95;19.10;;;15.50;79.20;;;;;;10869162;32;20015;-71
2023/04/07 19:51:15;;;;;;;27.27;19.70;;;15.30;79.00;;;;;;10867569;32;20058;-71
2023/04/07 19:57:17;;;;;;;22.37;16.30;;;15.20;78.70;;;;;;10831632;32;20036;-71
2023/04/07 20:03:20;;;;;;;21.30;15.68;;;15.20;78.40;;;;;;10817776;32;20054;-71
2023/04/07 20:09:25;;;;;;;22.60;15.45;;;15.10;78.30;;;;;;10832036;32;20027;-71
2023/04/07 20:15:28;;;;;;;16.08;12.15;;;15.00;78.10;;;;;;10832114;32;20028;-70
2023/04/07 20:21:31;;;;;;;16.85;12.32;;;15.00;77.90;;;;;;10830203;32;20324;-71
2023/04/07 20:27:33;;;;;;;16.77;14.15;;;14.90;77.80;;;;;;10817359;32;20031;-71
2023/04/07 20:33:35;;;;;;;11.23;8.50;;;14.80;77.80;;;;;;10827055;32;20020;-71
2023/04/07 20:39:38;;;;;;;16.65;11.88;;;14.80;77.70;;;;;;10830912;32;20406;-71
2023/04/07 20:45:40;;;;;;;14.00;11.12;;;14.80;77.60;;;;;;10830148;32;20012;-71
2023/04/07 20:51:42;;;;;;;11.68;9.10;;;14.90;77.30;;;;;;10830266;32;20047;-71
2023/04/07 20:57:44;;;;;;;13.95;10.05;;;14.80;77.30;;;;;;10830150;32;20038;-71
2023/04/07 21:03:46;;;;;;;16.95;12.70;;;14.70;77.30;;;;;;10830297;32;20025;-71
2023/04/07 21:09:48;;;;;;;15.05;11.82;;;14.60;77.70;;;;;;10830783;32;20070;-71
2023/04/07 21:15:50;;;;;;;17.73;13.60;;;14.70;77.30;;;;;;10815535;32;20400;-70
2023/04/07 21:21:53;;;;;;;20.40;15.13;;;14.70;77.30;;;;;;10829701;33;20019;-70
2023/04/07 21:27:55;;;;;;;14.90;10.73;;;14.70;77.70;;;;;;10826148;33;20058;-71
2023/04/07 21:33:57;;;;;;;15.30;11.27;;;14.70;77.60;;;;;;10829374;33;20020;-71
2023/04/07 21:40:00;;;;;;;14.40;11.35;;;14.60;77.50;;;;;;10826294;33;20024;-71
2023/04/07 21:46:02;;;;;;;13.27;10.55;;;14.20;77.70;;;;;;10828559;33;20046;-71
2023/04/07 21:52:05;;;;;;;10.43;8.70;;;14.00;78.50;;;;;;10846996;32;20032;-70
2023/04/07 21:58:08;;;;;;;13.23;9.18;;;14.20;78.30;;;;;;10874567;32;20405;-71
2023/04/07 22:04:10;;;;;;;13.00;10.40;;;14.30;78.10;;;;;;10873768;32;20020;-70
2023/04/07 22:10:13;;;;;;;17.60;13.52;;;14.40;77.80;;;;;;10858537;32;20027;-71
2023/04/07 22:16:15;;;;;;;13.75;11.77;;;14.40;77.70;;;;;;10858071;32;20439;-70
2023/04/07 22:22:17;;;;;;;13.13;10.38;;;14.40;77.60;;;;;;10873206;32;20008;-71
2023/04/07 22:28:20;;;;;;;13.43;10.85;;;14.50;78.10;;;;;;10872940;32;20023;-70
2023/04/07 22:34:22;;;;;;;13.82;11.85;;;14.60;77.90;;;;;;10870696;32;20050;-70
2023/04/07 22:40:24;;;;;;;13.70;11.70;;;14.50;77.50;;;;;;10870994;32;20046;-70
2023/04/07 22:46:26;;;;;;;15.70;10.23;;;14.30;77.50;;;;;;10871204;32;20034;-70
2023/04/07 22:52:28;;;;;;;12.63;10.50;;;14.30;77.20;;;;;;10870319;32;20024;-70
2023/04/07 22:58:30;;;;;;;18.33;14.25;;;14.30;77.60;;;;;;10870885;32;20428;-70
2023/04/07 23:04:32;;;;;;;12.20;9.88;;;14.10;77.70;;;;;;10870508;32;20028;-70
2023/04/07 23:10:35;;;;;;;11.93;8.43;;;14.20;78.00;;;;;;10858412;32;20394;-71
2023/04/07 23:16:37;;;;;;;11.27;8.00;;;14.20;79.00;;;;;;10870166;32;20038;-70
2023/04/07 23:22:38;;;;;;;11.65;8.07;;;14.20;79.00;;;;;;10870581;32;20007;-70
2023/04/07 23:28:40;;;;;;;13.32;11.15;;;14.00;79.00;;;;;;10856990;32;20059;-70
2023/04/07 23:34:42;;;;;;;15.40;11.88;;;14.00;79.00;;;;;;10869526;32;20074;-70
2023/04/07 23:40:44;;;;;;;11.95;8.48;;;14.10;78.90;;;;;;10870491;32;20058;-70
2023/04/07 23:46:46;;;;;;;10.73;7.25;;;14.00;78.70;;;;;;10870368;32;20020;-72
2023/04/07 23:52:48;;;;;;;10.60;8.60;;;13.80;78.60;;;;;;10872038;27;20016;-72
2023/04/07 23:58:50;;;;;;;17.08;10.23;;;13.80;78.50;;;;;;10870054;32;20050;-72
